Time;durP1;ratioP1;P1;durP2;ratioP2;P2;SDS_P1;SDS_P2;PMS_P1;PMS_P2;Temp;Humidity;BMP_temperature;BMP_pressure;BME280_temperature;BME280_humidity;BME280_pressure;Samples;Min_cycle;Max_cycle;Signal;HPM_P1;HPM_P2
2022/04/24 00:01:13;;;;;;;2.00;2.00;;;;;;;;;;5072281;28;20929;-67
2022/04/24 00:03:39;;;;;;;1.83;1.83;;;;;;;;;;5071985;28;20500;-67
2022/04/24 00:06:05;;;;;;;2.00;1.90;;;;;;;;;;5071696;28;20410;-67
2022/04/24 00:08:31;;;;;;;2.70;2.60;;;;;;;;;;5071546;28;20429;-67
2022/04/24 00:10:57;;;;;;;2.17;2.07;;;;;;;;;;5071542;28;20440;-68
2022/04/24 00:13:23;;;;;;;2.30;2.20;;;;;;;;;;5067701;28;20493;-67
2022/04/24 00:15:50;;;;;;;1.87;1.77;;;;;;;;;;5069192;28;20422;-68
2022/04/24 00:18:15;;;;;;;2.00;1.90;;;21.40;79.80;;;;;;5071356;28;20449;-68
2022/04/24 00:20:43;;;;;;;1.93;1.83;;;21.10;62.60;;;;;;5071727;28;20503;-67
2022/04/24 00:23:09;;;;;;;1.57;1.57;;;;;;;;;;5068698;28;20270;-67
2022/04/24 00:25:35;;;;;;;2.20;2.10;;;;;;;;;;5070740;28;20533;-68
2022/04/24 00:28:02;;;;;;;2.20;2.10;;;;;;;;;;5071192;28;20429;-67
2022/04/24 00:30:28;;;;;;;1.83;1.73;;;;;;;;;;5068428;28;20433;-67
2022/04/24 00:32:54;;;;;;;2.00;1.90;;;;;;;;;;5068672;28;20482;-68
2022/04/24 00:35:20;;;;;;;2.03;1.93;;;;;;;;;;5069915;28;20898;-67
2022/04/24 00:37:46;;;;;;;1.80;1.70;;;;;;;;;;5068126;28;20906;-67
2022/04/24 00:40:12;;;;;;;1.83;1.83;;;;;;;;;;5071242;28;20542;-67
2022/04/24 00:42:38;;;;;;;2.17;2.07;;;;;;;;;;5070354;28;20422;-68
2022/04/24 00:45:04;;;;;;;1.80;1.80;;;;;;;;;;5066833;28;20491;-67
2022/04/24 00:47:30;;;;;;;1.87;1.87;;;;;;;;;;5068972;28;20179;-67
2022/04/24 00:49:56;;;;;;;2.20;2.00;;;;;;;;;;5067689;28;20440;-68
2022/04/24 00:52:22;;;;;;;1.80;1.80;;;21.10;51.90;;;;;;5069742;28;21003;-67
2022/04/24 00:54:48;;;;;;;1.87;1.77;;;;;;;;;;5070428;28;20417;-67
2022/04/24 00:57:14;;;;;;;2.10;2.00;;;;;;;;;;5070683;28;20420;-67
2022/04/24 00:59:40;;;;;;;1.77;1.67;;;;;;;;;;5073696;28;20457;-67
2022/04/24 01:02:07;;;;;;;1.87;1.77;;;21.00;52.10;;;;;;5067186;28;20429;-67
2022/04/24 01:04:37;;;;;;;1.73;1.73;;;21.40;48.40;;;;;;5058974;28;20509;-67
2022/04/24 01:07:03;;;;;;;2.10;2.00;;;21.40;50.90;;;;;;5068287;28;20425;-66
2022/04/24 01:09:32;;;;;;;2.40;2.30;;;21.40;52.10;;;;;;5067845;28;21000;-67
2022/04/24 01:11:58;;;;;;;1.80;1.80;;;;;;;;;;5069439;28;20500;-67
2022/04/24 01:14:25;;;;;;;2.00;1.90;;;21.20;53.60;;;;;;5071776;28;20437;-67
2022/04/24 01:16:52;;;;;;;1.97;1.87;;;21.30;49.90;;;;;;5068333;28;20788;-68
2022/04/24 01:19:18;;;;;;;2.27;2.17;;;;;;;;;;5069899;28;20468;-67
2022/04/24 01:21:46;;;;;;;2.10;1.70;;;20.70;59.70;;;;;;5070435;28;20421;-68
2022/04/24 01:24:13;;;;;;;1.55;1.55;;;21.40;52.60;;;;;;5068147;28;20445;-66
2022/04/24 01:26:39;;;;;;;1.93;1.83;;;;;;;;;;5068704;28;20179;-67
2022/04/24 01:29:06;;;;;;;2.47;2.37;;;;;;;;;;5068319;28;20540;-67
2022/04/24 01:31:32;;;;;;;1.80;1.70;;;21.40;59.50;;;;;;5072704;28;20418;-67
2022/04/24 01:33:58;;;;;;;2.05;1.98;;;;;;;;;;5070936;28;20745;-67
2022/04/24 01:36:24;;;;;;;2.20;2.07;;;;;;;;;;5067211;28;20302;-67
2022/04/24 01:38:50;;;;;;;2.00;1.90;;;;;;;;;;5067156;28;20438;-66
2022/04/24 01:41:16;;;;;;;1.80;1.70;;;;;;;;;;5070278;28;20905;-67
2022/04/24 01:43:42;;;;;;;1.80;1.80;;;;;;;;;;5068190;28;20815;-67
2022/04/24 01:46:09;;;;;;;1.90;1.90;;;;;;;;;;5069611;28;20679;-67
2022/04/24 01:48:35;;;;;;;1.80;1.77;;;;;;;;;;5068823;28;20437;-66
2022/04/24 01:51:01;;;;;;;1.83;1.73;;;21.30;49.90;;;;;;5068195;28;20515;-67
2022/04/24 01:53:28;;;;;;;2.20;2.10;;;21.70;58.20;;;;;;5070010;28;20417;-67
2022/04/24 01:55:54;;;;;;;2.03;1.97;;;;;;;;;;5069322;28;20445;-68
2022/04/24 01:58:20;;;;;;;1.97;1.87;;;21.60;72.30;;;;;;5063942;28;20951;-67
2022/04/24 02:00:46;;;;;;;2.47;2.37;;;;;;;;;;5068282;28;20966;-67
2022/04/24 02:03:11;;;;;;;1.70;1.60;;;;;;;;;;5069346;28;20495;-67
2022/04/24 02:05:37;;;;;;;1.90;1.80;;;;;;;;;;5069204;28;20416;-67
2022/04/24 02:08:04;;;;;;;1.87;1.77;;;;;;;;;;5067567;28;20202;-66
2022/04/24 02:10:29;;;;;;;2.30;2.20;;;;;;;;;;5066542;28;20482;-67
2022/04/24 02:12:55;;;;;;;1.83;1.73;;;;;;;;;;5067186;28;20504;-66
2022/04/24 02:15:21;;;;;;;1.50;1.50;;;;;;;;;;5067907;28;20418;-67
2022/04/24 02:17:47;;;;;;;2.03;1.93;;;;;;;;;;5064510;28;20918;-67
2022/04/24 02:20:13;;;;;;;1.70;1.70;;;;;;;;;;5066120;28;20207;-67
2022/04/24 02:22:39;;;;;;;1.70;1.70;;;;;;;;;;5069600;28;20414;-67
2022/04/24 02:25:05;;;;;;;1.83;1.80;;;;;;;;;;5064414;28;20425;-67
2022/04/24 02:27:32;;;;;;;1.70;1.70;;;;;;;;;;5069118;28;20398;-68
2022/04/24 02:29:58;;;;;;;1.67;1.60;;;;;;;;;;5069690;28;20413;-67
2022/04/24 02:32:24;;;;;;;2.40;2.20;;;;;;;;;;5069805;28;20425;-68
2022/04/24 02:34:50;;;;;;;2.20;2.10;;;;;;;;;;5067145;28;20444;-67
2022/04/24 02:37:16;;;;;;;1.73;1.63;;;;;;;;;;5068503;28;20202;-67
2022/04/24 02:39:41;;;;;;;2.10;2.00;;;;;;;;;;5069954;28;20461;-68
2022/04/24 02:42:08;;;;;;;1.90;1.90;;;;;;;;;;5069094;28;20442;-67
2022/04/24 02:44:34;;;;;;;1.83;1.80;;;20.70;56.20;;;;;;5068965;28;20179;-68
2022/04/24 02:47:00;;;;;;;1.47;1.47;;;;;;;;;;5067413;28;20432;-67
2022/04/24 02:49:26;;;;;;;2.30;2.20;;;;;;;;;;5069642;28;20449;-67
2022/04/24 02:51:52;;;;;;;1.70;1.70;;;;;;;;;;5068518;28;20270;-67
2022/04/24 02:54:18;;;;;;;1.60;1.60;;;;;;;;;;5070523;28;20254;-67
2022/04/24 02:56:44;;;;;;;2.20;1.80;;;;;;;;;;5068943;28;20414;-67
2022/04/24 02:59:11;;;;;;;1.53;1.53;;;;;;;;;;5068854;28;20511;-67
2022/04/24 03:01:38;;;;;;;1.83;1.73;;;;;;;;;;5066365;28;20504;-67
2022/04/24 03:04:05;;;;;;;1.97;1.87;;;;;;;;;;5070016;28;20199;-67
2022/04/24 03:06:31;;;;;;;1.73;1.73;;;;;;;;;;5068750;28;20413;-67
2022/04/24 03:08:57;;;;;;;2.03;1.98;;;;;;;;;;5067564;28;20448;-67
2022/04/24 03:11:22;;;;;;;1.87;1.77;;;;;;;;;;5068547;28;20186;-67
2022/04/24 03:13:48;;;;;;;1.50;1.40;;;;;;;;;;5067177;28;20517;-67
2022/04/24 03:16:14;;;;;;;2.10;2.00;;;;;;;;;;5067864;28;20171;-67
2022/04/24 03:18:40;;;;;;;1.77;1.67;;;21.30;58.10;;;;;;5069185;28;20472;-67
2022/04/24 03:21:06;;;;;;;2.00;1.93;;;;;;;;;;5068287;28;20207;-67
2022/04/24 03:23:32;;;;;;;2.17;2.07;;;;;;;;;;5068906;28;20182;-67
2022/04/24 03:25:58;;;;;;;2.40;2.30;;;;;;;;;;5067910;28;20482;-67
2022/04/24 03:28:24;;;;;;;1.90;1.80;;;;;;;;;;5067975;28;20437;-66
2022/04/24 03:30:50;;;;;;;2.20;2.10;;;;;;;;;;5068158;28;20409;-67
2022/04/24 03:33:16;;;;;;;5.10;2.27;;;;;;;;;;5068349;28;20449;-66
2022/04/24 03:35:42;;;;;;;1.20;1.20;;;;;;;;;;5068123;28;20682;-66
2022/04/24 03:38:08;;;;;;;1.67;1.67;;;;;;;;;;5068210;28;20429;-68
2022/04/24 03:40:34;;;;;;;1.50;1.50;;;;;;;;;;5068201;28;20496;-68
2022/04/24 03:43:00;;;;;;;2.73;1.60;;;;;;;;;;5068053;28;20178;-67
2022/04/24 03:45:26;;;;;;;1.53;1.53;;;;;;;;;;5068061;28;20409;-67
2022/04/24 03:47:52;;;;;;;1.73;1.63;;;;;;;;;;5067828;28;20906;-67
2022/04/24 03:50:19;;;;;;;1.70;1.60;;;;;;;;;;5068121;28;20611;-67
2022/04/24 03:52:45;;;;;;;1.53;1.43;;;;;;;;;;5067991;28;20433;-67
2022/04/24 03:55:11;;;;;;;1.60;1.60;;;22.00;56.00;;;;;;5065415;28;20944;-67
2022/04/24 03:57:37;;;;;;;2.13;2.03;;;;;;;;;;5067865;28;20519;-67
2022/04/24 04:00:05;;;;;;;1.70;1.70;;;21.30;52.30;;;;;;5070587;28;20198;-67
2022/04/24 04:02:31;;;;;;;1.80;1.70;;;;;;;;;;5068173;28;20439;-66
2022/04/24 04:04:57;;;;;;;1.50;1.50;;;;;;;;;;5068003;28;20954;-66
2022/04/24 04:07:23;;;;;;;1.57;1.57;;;;;;;;;;5067827;28;20511;-67
2022/04/24 04:09:49;;;;;;;2.50;2.40;;;;;;;;;;5068402;28;20424;-67
2022/04/24 04:12:15;;;;;;;1.60;1.60;;;;;;;;;;5068303;28;20488;-66
2022/04/24 04:14:41;;;;;;;1.53;1.50;;;;;;;;;;5066855;28;20491;-66
2022/04/24 04:17:09;;;;;;;1.90;1.90;;;;;;;;;;5067960;28;20529;-67
2022/04/24 04:19:35;;;;;;;1.20;1.20;;;;;;;;;;5067658;28;20635;-67
2022/04/24 04:22:01;;;;;;;1.60;1.60;;;;;;;;;;5068119;28;20246;-67
2022/04/24 04:24:26;;;;;;;1.60;1.60;;;;;;;;;;5067777;28;20458;-67
2022/04/24 04:26:53;;;;;;;1.60;1.60;;;;;;;;;;5067838;28;20398;-67
2022/04/24 04:29:19;;;;;;;1.50;1.50;;;;;;;;;;5068278;28;20433;-67
2022/04/24 04:31:45;;;;;;;1.57;1.47;;;;;;;;;;5085922;28;20420;-68
2022/04/24 04:34:11;;;;;;;1.87;1.83;;;;;;;;;;5089195;28;20639;-67
2022/04/24 04:36:37;;;;;;;2.20;2.10;;;;;;;;;;5089051;28;20240;-67
2022/04/24 04:39:02;;;;;;;2.10;2.00;;;21.00;80.30;;;;;;5090441;28;20279;-67
2022/04/24 04:41:28;;;;;;;1.33;1.33;;;;;;;;;;5077890;28;20179;-67
2022/04/24 04:43:54;;;;;;;1.77;1.77;;;;;;;;;;5072632;28;20630;-67
2022/04/24 04:46:20;;;;;;;1.67;1.67;;;;;;;;;;5072430;28;20442;-66
2022/04/24 04:48:46;;;;;;;1.80;1.80;;;;;;;;;;5072487;28;20480;-66
2022/04/24 04:51:12;;;;;;;2.10;2.00;;;;;;;;;;5083556;28;20202;-68
2022/04/24 04:53:38;;;;;;;1.70;1.60;;;;;;;;;;5092835;28;20227;-67
2022/04/24 04:56:04;;;;;;;2.00;1.90;;;;;;;;;;5092533;28;20412;-66
2022/04/24 04:58:30;;;;;;;2.03;2.00;;;;;;;;;;5092166;28;20428;-66
2022/04/24 05:00:56;;;;;;;1.60;1.60;;;;;;;;;;5089861;28;20475;-67
2022/04/24 05:03:22;;;;;;;1.80;1.70;;;;;;;;;;5082962;28;20433;-68
2022/04/24 05:05:48;;;;;;;2.07;1.97;;;;;;;;;;5072308;28;20460;-67
2022/04/24 05:08:14;;;;;;;1.30;1.30;;;;;;;;;;5072782;28;20456;-68
2022/04/24 05:10:40;;;;;;;2.07;2.00;;;;;;;;;;5070517;28;20508;-68
2022/04/24 05:13:06;;;;;;;1.83;1.83;;;;;;;;;;5071790;28;20258;-67
2022/04/24 05:15:32;;;;;;;1.70;1.70;;;;;;;;;;5080283;28;20482;-67
2022/04/24 05:17:58;;;;;;;1.60;1.50;;;;;;;;;;5091007;28;20491;-67
2022/04/24 05:20:24;;;;;;;1.87;1.77;;;;;;;;;;5091348;28;20479;-67
2022/04/24 05:22:50;;;;;;;2.40;2.30;;;;;;;;;;5092036;28;20174;-67
2022/04/24 05:25:16;;;;;;;1.87;1.80;;;;;;;;;;5078806;28;20504;-67
2022/04/24 05:27:42;;;;;;;1.83;1.77;;;;;;;;;;5071397;28;20849;-67
2022/04/24 05:30:09;;;;;;;1.80;1.70;;;21.20;53.90;;;;;;5071347;28;20421;-68
2022/04/24 05:32:52;;;;;;;1.70;1.70;;;21.20;48.20;;;;;;5071697;28;20418;-68
2022/04/24 05:35:18;;;;;;;1.70;1.70;;;21.20;52.50;;;;;;5051359;28;20879;-67
2022/04/24 05:37:45;;;;;;;2.43;2.33;;;;;;;;;;5051118;28;20509;-67
2022/04/24 05:40:11;;;;;;;1.83;1.60;;;21.20;50.10;;;;;;5055266;28;20264;-68
2022/04/24 05:42:45;;;;;;;1.50;1.50;;;21.00;72.20;;;;;;5091724;28;20417;-68
2022/04/24 05:45:14;;;;;;;1.60;1.60;;;21.30;79.10;;;;;;5080868;28;20421;-67
2022/04/24 05:47:40;;;;;;;2.10;2.00;;;;;;;;;;5071072;28;20809;-67
2022/04/24 05:50:06;;;;;;;2.10;2.00;;;;;;;;;;5070809;28;20890;-67
2022/04/24 05:52:32;;;;;;;1.90;1.90;;;;;;;;;;5091252;28;20851;-67
2022/04/24 05:54:58;;;;;;;1.43;1.40;;;;;;;;;;5091208;28;20466;-66
2022/04/24 05:57:24;;;;;;;1.60;1.53;;;;;;;;;;5090877;28;20178;-66
2022/04/24 05:59:50;;;;;;;1.50;1.40;;;;;;;;;;5090651;28;20258;-67
2022/04/24 06:02:16;;;;;;;1.30;1.30;;;;;;;;;;5072982;28;20211;-67
2022/04/24 06:04:42;;;;;;;1.60;1.50;;;;;;;;;;5070745;28;20171;-67
2022/04/24 06:07:10;;;;;;;1.87;1.77;;;;;;;;;;5070270;28;20910;-67
2022/04/24 06:09:35;;;;;;;1.87;1.77;;;;;;;;;;5087923;28;20505;-68
2022/04/24 06:12:01;;;;;;;1.73;1.63;;;21.20;74.40;;;;;;5089088;28;20757;-67
2022/04/24 06:14:28;;;;;;;1.87;1.77;;;;;;;;;;5070643;28;20922;-67
2022/04/24 06:16:54;;;;;;;1.53;1.43;;;;;;;;;;5073404;28;20424;-67
2022/04/24 06:19:20;;;;;;;1.40;1.40;;;;;;;;;;5090558;28;20558;-67
2022/04/24 06:21:46;;;;;;;2.30;2.00;;;;;;;;;;5091066;28;20713;-67
2022/04/24 06:24:12;;;;;;;1.83;1.73;;;;;;;;;;5087163;28;20479;-67
2022/04/24 06:26:39;;;;;;;1.83;1.27;;;;;;;;;;5070392;28;20402;-67
2022/04/24 06:29:05;;;;;;;1.87;1.77;;;;;;;;;;5064700;28;20438;-66
2022/04/24 06:31:31;;;;;;;1.47;1.47;;;;;;;;;;5069364;28;20963;-66
2022/04/24 06:33:57;;;;;;;1.40;1.30;;;;;;;;;;5069327;28;20508;-66
2022/04/24 06:36:23;;;;;;;1.60;1.60;;;;;;;;;;5069012;28;20478;-68
2022/04/24 06:38:49;;;;;;;1.57;1.47;;;;;;;;;;5069480;28;20209;-67
2022/04/24 06:41:15;;;;;;;1.20;1.20;;;;;;;;;;5070347;28;20469;-67
2022/04/24 06:43:40;;;;;;;1.30;1.30;;;21.10;57.30;;;;;;5070564;28;20175;-67
2022/04/24 06:46:06;;;;;;;1.60;1.60;;;;;;;;;;5068604;28;20197;-67
2022/04/24 06:48:32;;;;;;;1.50;1.50;;;;;;;;;;5068799;28;20686;-66
2022/04/24 06:50:58;;;;;;;1.40;1.40;;;;;;;;;;5067008;28;20905;-67
2022/04/24 06:53:25;;;;;;;1.33;1.33;;;;;;;;;;5068997;28;20528;-67
2022/04/24 06:55:50;;;;;;;1.47;1.37;;;21.30;55.90;;;;;;5068722;28;20497;-68
2022/04/24 06:58:18;;;;;;;1.53;1.53;;;21.20;52.40;;;;;;5068369;28;20440;-67
2022/04/24 07:00:45;;;;;;;1.40;1.30;;;23.50;53.80;;;;;;5068139;28;20683;-67
2022/04/24 07:03:22;;;;;;;1.50;1.40;;;21.20;48.50;;;;;;5068341;28;20413;-67
2022/04/24 07:05:48;;;;;;;1.50;1.50;;;21.20;51.90;;;;;;5066335;28;20484;-67
2022/04/24 07:08:15;;;;;;;1.60;1.60;;;;;;;;;;5070335;28;20456;-67
2022/04/24 07:10:40;;;;;;;1.90;1.80;;;21.30;50.80;;;;;;5068088;28;20958;-66
2022/04/24 07:13:06;;;;;;;1.30;1.30;;;;;;;;;;5068587;28;20508;-66
2022/04/24 07:15:39;;;;;;;1.37;1.37;;;21.30;77.30;;;;;;5066948;28;20187;-68
2022/04/24 07:18:06;;;;;;;1.55;1.55;;;;;;;;;;5065754;28;20457;-68
2022/04/24 07:20:31;;;;;;;1.50;1.50;;;21.40;66.00;;;;;;5067991;28;20203;-67
2022/04/24 07:23:01;;;;;;;1.33;1.33;;;21.10;58.60;;;;;;5066853;28;20468;-67
2022/04/24 07:25:28;;;;;;;1.30;1.30;;;21.20;52.70;;;;;;5067836;28;20172;-64
2022/04/24 07:27:54;;;;;;;1.30;1.30;;;21.20;51.20;;;;;;5068001;28;20456;-67
2022/04/24 07:30:21;;;;;;;1.57;1.57;;;21.20;52.40;;;;;;5066595;28;20439;-67
2022/04/24 07:32:52;;;;;;;1.33;1.33;;;21.20;52.50;;;;;;5068826;28;20863;-66
2022/04/24 07:35:25;;;;;;;1.90;1.80;;;21.20;52.40;;;;;;5066426;28;20460;-67
2022/04/24 07:37:52;;;;;;;1.37;1.37;;;;;;;;;;5067565;28;20935;-67
2022/04/24 07:40:22;;;;;;;1.43;1.43;;;21.20;52.30;;;;;;5067580;28;20464;-67
2022/04/24 07:42:55;;;;;;;1.73;1.63;;;21.10;57.40;;;;;;5066241;28;20416;-67
2022/04/24 07:45:26;;;;;;;1.90;1.80;;;21.20;52.50;;;;;;5065212;28;20486;-68
2022/04/24 07:47:53;;;;;;;1.40;1.30;;;21.90;58.10;;;;;;5067795;28;20469;-67
2022/04/24 07:50:21;;;;;;;1.13;1.13;;;21.20;52.20;;;;;;5070369;28;20898;-68
2022/04/24 07:52:47;;;;;;;1.13;1.13;;;;;;;;;;5069162;28;20433;-68
2022/04/24 07:55:17;;;;;;;1.40;1.40;;;21.20;52.30;;;;;;5067729;28;20414;-67
2022/04/24 07:57:43;;;;;;;1.27;1.27;;;;;;;;;;5064712;28;20434;-67
2022/04/24 08:00:09;;;;;;;1.40;1.40;;;;;;;;;;5067512;28;20473;-68
2022/04/24 08:03:00;;;;;;;3.13;1.47;;;21.00;60.20;;;;;;5068410;28;20488;-67
2022/04/24 08:05:30;;;;;;;1.17;1.17;;;21.20;52.50;;;;;;5065387;28;20443;-67
2022/04/24 08:07:57;;;;;;;1.10;1.10;;;21.20;52.60;;;;;;5067400;28;20236;-67
2022/04/24 08:10:25;;;;;;;1.07;1.07;;;21.60;60.90;;;;;;5066744;28;20428;-68
2022/04/24 08:12:51;;;;;;;1.40;1.40;;;;;;;;;;5069560;28;20418;-67
2022/04/24 08:15:17;;;;;;;1.40;1.40;;;;;;;;;;5072273;28;20405;-67
2022/04/24 08:17:43;;;;;;;1.83;1.70;;;;;;;;;;5071327;28;20595;-67
2022/04/24 08:20:11;;;;;;;1.50;1.40;;;21.20;52.50;;;;;;5071613;28;20535;-67
2022/04/24 08:22:44;;;;;;;1.20;1.20;;;21.10;48.40;;;;;;5071344;28;20417;-66
2022/04/24 08:25:12;;;;;;;1.67;1.57;;;21.20;52.30;;;;;;5071581;28;20413;-67
2022/04/24 08:27:38;;;;;;;1.33;1.33;;;21.30;68.70;;;;;;5071234;28;20828;-68
2022/04/24 08:30:08;;;;;;;1.33;1.33;;;21.10;48.40;;;;;;5069979;28;20448;-67
2022/04/24 08:32:35;;;;;;;1.43;1.43;;;21.00;52.50;;;;;;5072338;28;20417;-67
2022/04/24 08:35:02;;;;;;;1.20;1.20;;;;;;;;;;5075105;28;20951;-66
2022/04/24 08:37:28;;;;;;;1.10;1.00;;;;;;;;;;5070385;28;20502;-68
2022/04/24 08:39:55;;;;;;;1.00;1.00;;;;;;;;;;5071957;28;20465;-68
2022/04/24 08:42:21;;;;;;;6.10;1.17;;;;;;;;;;5072386;28;20508;-68
2022/04/24 08:44:51;;;;;;;1.70;1.10;;;21.20;49.70;;;;;;5072299;28;20417;-69
2022/04/24 08:47:18;;;;;;;1.23;1.10;;;21.30;53.40;;;;;;5071636;28;20483;-67
2022/04/24 08:49:44;;;;;;;1.10;1.10;;;;;;;;;;5070463;28;20425;-67
2022/04/24 08:52:10;;;;;;;0.90;0.90;;;;;;;;;;5067029;28;20512;-67
2022/04/24 08:54:37;;;;;;;1.07;1.07;;;;;;;;;;5072469;28;20866;-67
2022/04/24 08:57:03;;;;;;;0.90;0.90;;;;;;;;;;5079258;28;20511;-67
2022/04/24 08:59:29;;;;;;;0.70;0.70;;;;;;;;;;5091850;28;20897;-67
2022/04/24 09:01:58;;;;;;;0.60;0.60;;;21.10;54.30;;;;;;5092119;28;20401;-67
2022/04/24 09:04:24;;;;;;;1.07;1.03;;;;;;;;;;5077224;28;20441;-67
2022/04/24 09:06:56;;;;;;;0.80;0.80;;;21.20;50.20;;;;;;5071278;28;20891;-67
2022/04/24 09:09:22;;;;;;;0.80;0.80;;;;;;;;;;5071523;28;20429;-67
2022/04/24 09:11:48;;;;;;;1.27;0.93;;;;;;;;;;5071678;28;20413;-67
2022/04/24 09:14:14;;;;;;;0.90;0.90;;;;;;;;;;5084443;28;20428;-67
2022/04/24 09:16:47;;;;;;;0.77;0.77;;;21.20;54.10;;;;;;5091684;28;20405;-67
2022/04/24 09:19:17;;;;;;;0.87;0.87;;;20.50;49.90;;;;;;5091697;28;20456;-67
2022/04/24 09:21:43;;;;;;;1.10;1.10;;;;;;;;;;5072373;28;20413;-67
2022/04/24 09:24:09;;;;;;;0.75;0.75;;;;;;;;;;5076051;28;20429;-67
2022/04/24 09:26:35;;;;;;;1.17;1.07;;;;;;;;;;5072548;28;20183;-67
2022/04/24 09:29:01;;;;;;;0.80;0.80;;;;;;;;;;5071663;28;20425;-67
2022/04/24 09:31:30;;;;;;;0.70;0.70;;;21.30;50.20;;;;;;5072503;28;20422;-67
2022/04/24 09:33:56;;;;;;;1.23;1.13;;;;;;;;;;5071675;28;20175;-67
2022/04/24 09:36:25;;;;;;;1.00;1.00;;;21.20;54.80;;;;;;5071244;28;20410;-67
2022/04/24 09:38:51;;;;;;;0.90;0.90;;;;;;;;;;5071260;28;21166;-67
2022/04/24 09:41:23;;;;;;;1.13;1.00;;;21.20;54.50;;;;;;5071866;28;20488;-67
2022/04/24 09:43:49;;;;;;;0.70;0.70;;;20.80;52.40;;;;;;5069485;28;20433;-67
2022/04/24 09:46:28;;;;;;;0.70;0.70;;;21.30;56.40;;;;;;5069983;28;20414;-67
2022/04/24 09:48:58;;;;;;;0.97;0.97;;;21.20;75.50;;;;;;5070954;28;20515;-67
2022/04/24 09:51:24;;;;;;;0.80;0.80;;;;;;;;;;5072027;28;20490;-67
2022/04/24 09:53:52;;;;;;;0.80;0.80;;;21.20;78.10;;;;;;5070954;28;20885;-67
2022/04/24 09:56:19;;;;;;;1.00;1.00;;;21.10;62.10;;;;;;5070622;28;20417;-67
2022/04/24 09:58:45;;;;;;;0.80;0.80;;;;;;;;;;5073276;28;20531;-67
2022/04/24 10:01:12;;;;;;;1.10;1.10;;;21.30;66.80;;;;;;5089355;28;20975;-67
2022/04/24 10:03:38;;;;;;;0.90;0.80;;;;;;;;;;5079578;28;20433;-67
2022/04/24 10:06:05;;;;;;;0.80;0.80;;;21.20;53.60;;;;;;5068212;28;20406;-68
2022/04/24 10:08:35;;;;;;;1.00;1.00;;;21.00;53.20;;;;;;5072304;28;20727;-68
2022/04/24 10:11:05;;;;;;;1.10;1.10;;;21.20;53.40;;;;;;5090904;28;20412;-67
2022/04/24 10:13:35;;;;;;;0.60;0.60;;;21.20;53.50;;;;;;5090771;28;20501;-68
2022/04/24 10:16:07;;;;;;;1.10;1.10;;;21.30;64.10;;;;;;5090753;28;20734;-67
2022/04/24 10:18:54;;;;;;;0.60;0.60;;;20.90;55.80;;;;;;5088116;28;20456;-67
2022/04/24 10:21:40;;;;;;;0.70;0.70;;;21.10;49.40;;;;;;5070236;28;20495;-67
2022/04/24 10:24:12;;;;;;;0.93;0.93;;;21.10;49.50;;;;;;5070464;28;20585;-68
2022/04/24 10:26:39;;;;;;;0.80;0.80;;;;;;;;;;5070687;28;20422;-67
2022/04/24 10:29:06;;;;;;;0.70;0.70;;;21.30;60.70;;;;;;5070276;28;20441;-68
2022/04/24 10:31:46;;;;;;;0.67;0.67;;;21.10;49.30;;;;;;5070371;28;20438;-67
2022/04/24 10:34:20;;;;;;;0.63;0.60;;;22.20;57.70;;;;;;5070310;28;20413;-67
2022/04/24 10:36:55;;;;;;;1.07;1.07;;;21.10;49.60;;;;;;5070435;28;20408;-67
2022/04/24 10:39:24;;;;;;;1.20;1.10;;;21.10;53.30;;;;;;5090132;28;20432;-68
2022/04/24 10:41:59;;;;;;;0.80;0.80;;;20.70;50.40;;;;;;5088582;28;20416;-67
2022/04/24 10:44:25;;;;;;;0.80;0.80;;;19.50;52.50;;;;;;5090000;28;20459;-67
2022/04/24 10:46:53;;;;;;;1.00;0.90;;;;;;;;;;5089958;28;20865;-68
2022/04/24 10:49:19;;;;;;;0.80;0.80;;;;;;;;;;5089850;28;20585;-67
2022/04/24 10:52:01;;;;;;;0.90;0.90;;;21.10;52.80;;;;;;5088521;28;20491;-67
2022/04/24 10:54:32;;;;;;;0.73;0.73;;;21.20;50.10;;;;;;5088134;28;20450;-68
2022/04/24 10:56:59;;;;;;;0.80;0.80;;;;;;;;;;5068597;28;20496;-67
2022/04/24 10:59:26;;;;;;;1.10;1.10;;;;;;;;;;5069450;28;20743;-67
2022/04/24 11:01:54;;;;;;;0.73;0.73;;;21.20;60.60;;;;;;5066575;28;20417;-67
2022/04/24 11:04:21;;;;;;;0.85;0.85;;;21.30;53.20;;;;;;5062776;28;20178;-67
2022/04/24 11:06:58;;;;;;;0.77;0.77;;;22.10;56.60;;;;;;5063436;28;20199;-68
2022/04/24 11:09:28;;;;;;;0.65;0.65;;;21.10;51.70;;;;;;5066739;28;20447;-68
2022/04/24 11:12:01;;;;;;;1.27;1.23;;;21.00;49.40;;;;;;5068381;28;20171;-67
2022/04/24 11:14:28;;;;;;;1.00;1.00;;;21.50;53.30;;;;;;5065368;28;20428;-67
2022/04/24 11:17:03;;;;;;;1.10;1.10;;;21.10;49.50;;;;;;5067854;28;20414;-67
2022/04/24 11:19:30;;;;;;;0.93;0.93;;;21.20;52.80;;;;;;5061700;28;20462;-67
2022/04/24 11:21:59;;;;;;;0.73;0.73;;;21.10;53.00;;;;;;5064705;28;20433;-67
2022/04/24 11:24:26;;;;;;;1.60;0.83;;;21.10;53.00;;;;;;5068813;28;20421;-67
2022/04/24 11:26:52;;;;;;;0.80;0.80;;;;;;;;;;5063504;28;20426;-67
2022/04/24 11:29:20;;;;;;;1.20;1.20;;;21.20;52.90;;;;;;5068592;28;20588;-67
2022/04/24 11:31:51;;;;;;;0.90;0.90;;;21.10;71.70;;;;;;5069278;28;20834;-67
2022/04/24 11:34:19;;;;;;;0.70;0.70;;;21.10;53.40;;;;;;5068727;28;20445;-67
2022/04/24 11:36:45;;;;;;;1.33;0.70;;;;;;;;;;5067773;28;20492;-67
2022/04/24 11:39:10;;;;;;;0.80;0.80;;;;;;;;;;5065810;28;20444;-67
2022/04/24 11:41:37;;;;;;;0.80;0.80;;;;;;;;;;5069306;28;20441;-67
2022/04/24 11:52:19;;;;;;;0.77;0.77;;;21.10;61.00;;;;;;5070730;28;20488;-66
2022/04/24 11:54:45;;;;;;;0.80;0.80;;;;;;;;;;5070330;28;20421;-67
2022/04/24 11:57:11;;;;;;;0.93;0.93;;;;;;;;;;5068571;28;20183;-67
2022/04/24 11:59:37;;;;;;;0.68;0.68;;;;;;;;;;5069413;28;20558;-66
2022/04/24 12:02:05;;;;;;;0.60;0.60;;;;;;;;;;5066082;28;21133;-66
2022/04/24 12:04:33;;;;;;;0.73;0.73;;;21.10;53.80;;;;;;5067494;28;20456;-66
2022/04/24 12:07:07;;;;;;;1.00;0.90;;;21.10;59.20;;;;;;5070002;28;20174;-67
2022/04/24 12:09:33;;;;;;;0.60;0.60;;;20.90;56.90;;;;;;5072900;28;20933;-66
2022/04/24 12:12:07;;;;;;;1.47;1.37;;;21.10;50.50;;;;;;5068519;28;20444;-66
2022/04/24 12:14:34;;;;;;;0.90;0.90;;;21.30;53.30;;;;;;5069918;28;20450;-66
2022/04/24 12:17:04;;;;;;;0.73;0.73;;;21.10;50.60;;;;;;5068213;28;20402;-66
2022/04/24 12:19:30;;;;;;;0.60;0.60;;;;;;;;;;5079089;28;20778;-67
2022/04/24 12:21:56;;;;;;;1.57;0.83;;;;;;;;;;5073358;28;20420;-67
2022/04/24 12:24:22;;;;;;;0.70;0.70;;;;;;;;;;5070788;28;20885;-67
2022/04/24 12:26:52;;;;;;;0.80;0.80;;;21.10;50.90;;;;;;5057166;28;20452;-67
2022/04/24 12:29:18;;;;;;;0.97;0.97;;;;;;;;;;5062908;28;20460;-67
2022/04/24 12:31:45;;;;;;;1.00;1.00;;;21.10;53.30;;;;;;5075664;28;20792;-67
2022/04/24 12:34:11;;;;;;;0.80;0.80;;;;;;;;;;5075439;28;20413;-67
2022/04/24 12:36:47;;;;;;;0.80;0.80;;;20.80;63.90;;;;;;5067104;28;20421;-66
2022/04/24 12:39:13;;;;;;;1.53;1.20;;;;;;;;;;5071233;28;20761;-67
2022/04/24 12:41:40;;;;;;;0.83;0.83;;;;;;;;;;5075462;28;20519;-66
2022/04/24 12:44:07;;;;;;;1.07;0.97;;;20.70;54.70;;;;;;5085361;28;20421;-66
2022/04/24 12:46:35;;;;;;;1.97;1.83;;;20.70;54.50;;;;;;5071892;28;20860;-66
2022/04/24 12:49:03;;;;;;;3.63;2.80;;;;;;;;;;5072226;28;20437;-66
2022/04/24 12:51:29;;;;;;;3.73;2.83;;;;;;;;;;5072165;28;20402;-66
2022/04/24 12:53:55;;;;;;;5.20;3.83;;;;;;;;;;5072890;28;20457;-66
2022/04/24 12:56:21;;;;;;;6.63;4.60;;;;;;;;;;5072171;28;20483;-66
2022/04/24 12:58:48;;;;;;;11.93;4.45;;;;;;;;;;5070226;28;20437;-66
2022/04/24 13:01:14;;;;;;;10.20;5.97;;;21.10;54.00;;;;;;5070378;28;20203;-66
2022/04/24 13:03:41;;;;;;;7.70;5.40;;;21.10;54.80;;;;;;5066441;28;20418;-66
2022/04/24 13:06:07;;;;;;;6.60;5.43;;;21.00;60.40;;;;;;5071603;28;20413;-66
2022/04/24 13:08:33;;;;;;;5.43;4.72;;;21.00;53.00;;;;;;5067611;28;20453;-66
2022/04/24 13:10:59;;;;;;;8.13;5.00;;;;;;;;;;5069299;28;20186;-66
2022/04/24 13:13:27;;;;;;;7.50;5.07;;;;;;;;;;5070761;28;20581;-66
2022/04/24 13:18:38;;;;;;;6.90;5.57;;;;;;;;;;5071524;28;20258;-66
2022/04/24 13:21:04;;;;;;;9.27;6.43;;;;;;;;;;5070008;28;20775;-66
2022/04/24 13:23:30;;;;;;;5.87;5.10;;;;;;;;;;5072112;28;20859;-66
2022/04/24 13:25:56;;;;;;;8.13;5.50;;;;;;;;;;5062052;28;20457;-67
2022/04/24 13:28:24;;;;;;;7.63;5.90;;;;;;;;;;5059743;28;20862;-66
2022/04/24 13:30:51;;;;;;;8.13;6.03;;;21.10;57.80;;;;;;5062087;28;20434;-66
2022/04/24 13:33:17;;;;;;;9.47;6.13;;;;;;;;;;5062728;28;20430;-66
2022/04/24 13:35:44;;;;;;;15.60;7.13;;;21.40;58.40;;;;;;5064735;28;20425;-66
2022/04/24 13:38:18;;;;;;;7.63;5.57;;;20.90;82.30;;;;;;5070962;28;20436;-66
2022/04/24 13:40:55;;;;;;;13.33;5.87;;;21.10;54.60;;;;;;5080665;28;20444;-66
2022/04/24 13:43:22;;;;;;;10.27;6.27;;;20.90;52.50;;;;;;5089076;28;20420;-66
2022/04/24 13:45:50;;;;;;;13.10;7.07;;;20.70;54.40;;;;;;5077699;28;20535;-66
2022/04/24 13:48:16;;;;;;;15.60;7.10;;;;;;;;;;5063960;28;20456;-66
2022/04/24 13:50:42;;;;;;;13.30;7.50;;;21.10;52.90;;;;;;5066281;28;20425;-66
2022/04/24 13:53:08;;;;;;;15.27;6.50;;;;;;;;;;5075608;28;20496;-66
2022/04/24 13:55:34;;;;;;;10.87;7.33;;;21.10;54.10;;;;;;5064165;28;20587;-66
2022/04/24 13:58:01;;;;;;;14.43;7.77;;;;;;;;;;5060343;28;20533;-66
2022/04/24 14:00:27;;;;;;;13.23;7.57;;;;;;;;;;5064706;28;20476;-66
2022/04/24 14:02:54;;;;;;;13.60;7.33;;;;;;;;;;5069897;28;20429;-66
2022/04/24 14:05:26;;;;;;;10.53;7.13;;;;;;;;;;5069520;28;20471;-66